KARA/ARA METAR and TAF weather

Enter ICAO airport designator
Station Type Date Time Source
KARA METAR 2022/01/26 13:53 UTC NOAA

KARA 261353Z 02011KT 10SM CLR 03/M01 A3032 RMK AO2 SLP267 T00281011


Station Type Date Time Source
KARA Decoded METAR 2022/01/26 13:53 UTC NOAA

NEW IBERIA ACADIANA REGIONAL, LA, United States (KARA) 30-02N 091-53W 18M
Jan 26, 2022 - 08:53 AM EST / 2022.01.26 1353 UTC
Wind: from the NNE (020 degrees) at 13 MPH (11 KT):0
Visibility: 10 mile(s):0
Sky conditions: clear
Temperature: 37.0 F (2.8 C)
Dew Point: 30.0 F (-1.1 C)
Relative Humidity: 75%
Pressure (altimeter): 30.32 in. Hg (1026 hPa)
ob: KARA 261353Z 02011KT 10SM CLR 03/M01 A3032 RMK AO2 SLP267 T00281011
cycle: 14

Station Type Date Time Source
KARA TAF 2022/01/26 12:39 UTC NOAA

TAF KARA 261134Z 2612/2712 01011G18KT P6SM SKC
FM270000 02006KT P6SM SKC

Example: see airport list